sensor_id;sensor_type;location;lat;lon;timestamp;temperature;humidity
10472;DHT22;5283;48.876;8.962;2023-04-24T00:01:21;10.10;99.90
10472;DHT22;5283;48.876;8.962;2023-04-24T00:03:47;10.10;99.90
10472;DHT22;5283;48.876;8.962;2023-04-24T00:06:14;10.20;99.90
10472;DHT22;5283;48.876;8.962;2023-04-24T00:08:45;10.20;99.90
10472;DHT22;5283;48.876;8.962;2023-04-24T00:11:11;10.20;99.90
10472;DHT22;5283;48.876;8.962;2023-04-24T00:13:38;10.30;99.90
10472;DHT22;5283;48.876;8.962;2023-04-24T00:16:07;10.30;99.90
10472;DHT22;5283;48.876;8.962;2023-04-24T00:18:34;10.30;99.90
10472;DHT22;5283;48.876;8.962;2023-04-24T00:21:01;10.30;99.90
10472;DHT22;5283;48.876;8.962;2023-04-24T00:23:27;10.40;99.90
10472;DHT22;5283;48.876;8.962;2023-04-24T00:25:54;10.50;99.90
10472;DHT22;5283;48.876;8.962;2023-04-24T00:28:21;10.50;99.90
10472;DHT22;5283;48.876;8.962;2023-04-24T00:30:47;10.50;99.90
10472;DHT22;5283;48.876;8.962;2023-04-24T00:33:15;10.50;99.90
10472;DHT22;5283;48.876;8.962;2023-04-24T00:35:42;10.50;99.90
10472;DHT22;5283;48.876;8.962;2023-04-24T00:38:09;10.40;99.90
10472;DHT22;5283;48.876;8.962;2023-04-24T00:40:35;10.40;99.90
10472;DHT22;5283;48.876;8.962;2023-04-24T00:43:02;10.40;99.90
10472;DHT22;5283;48.876;8.962;2023-04-24T00:45:30;10.50;99.90
10472;DHT22;5283;48.876;8.962;2023-04-24T00:47:57;10.60;99.90
10472;DHT22;5283;48.876;8.962;2023-04-24T00:50:25;10.60;99.90
10472;DHT22;5283;48.876;8.962;2023-04-24T00:52:52;10.70;99.90
10472;DHT22;5283;48.876;8.962;2023-04-24T00:55:19;10.70;99.90
10472;DHT22;5283;48.876;8.962;2023-04-24T00:57:47;10.70;99.90
10472;DHT22;5283;48.876;8.962;2023-04-24T01:00:15;10.70;99.90
10472;DHT22;5283;48.876;8.962;2023-04-24T01:02:44;10.70;99.90
10472;DHT22;5283;48.876;8.962;2023-04-24T01:05:13;10.80;99.90
10472;DHT22;5283;48.876;8.962;2023-04-24T01:07:41;10.80;99.90
10472;DHT22;5283;48.876;8.962;2023-04-24T01:10:13;10.70;99.90
10472;DHT22;5283;48.876;8.962;2023-04-24T01:12:40;10.70;99.90
10472;DHT22;5283;48.876;8.962;2023-04-24T01:15:07;10.70;99.90
10472;DHT22;5283;48.876;8.962;2023-04-24T01:17:35;10.60;99.90
10472;DHT22;5283;48.876;8.962;2023-04-24T01:20:02;10.50;99.90
10472;DHT22;5283;48.876;8.962;2023-04-24T01:22:36;10.40;99.90
10472;DHT22;5283;48.876;8.962;2023-04-24T01:25:03;10.40;99.90
10472;DHT22;5283;48.876;8.962;2023-04-24T01:27:30;10.30;99.90
10472;DHT22;5283;48.876;8.962;2023-04-24T01:29:57;10.20;99.90
10472;DHT22;5283;48.876;8.962;2023-04-24T01:32:25;10.10;99.90
10472;DHT22;5283;48.876;8.962;2023-04-24T01:34:52;10.00;99.90
10472;DHT22;5283;48.876;8.962;2023-04-24T01:37:19;9.80;99.90
10472;DHT22;5283;48.876;8.962;2023-04-24T01:39:46;9.70;99.90
10472;DHT22;5283;48.876;8.962;2023-04-24T01:42:13;9.60;99.90
10472;DHT22;5283;48.876;8.962;2023-04-24T01:44:41;9.50;99.90
10472;DHT22;5283;48.876;8.962;2023-04-24T01:47:08;9.40;99.90
10472;DHT22;5283;48.876;8.962;2023-04-24T01:49:37;9.40;99.90
10472;DHT22;5283;48.876;8.962;2023-04-24T01:52:04;9.30;99.90
10472;DHT22;5283;48.876;8.962;2023-04-24T01:54:31;9.30;99.90
10472;DHT22;5283;48.876;8.962;2023-04-24T01:56:58;9.40;99.90
10472;DHT22;5283;48.876;8.962;2023-04-24T01:59:25;9.30;99.90
10472;DHT22;5283;48.876;8.962;2023-04-24T02:01:54;9.30;99.90
10472;DHT22;5283;48.876;8.962;2023-04-24T02:04:30;9.30;99.90
10472;DHT22;5283;48.876;8.962;2023-04-24T02:06:57;9.30;99.90
10472;DHT22;5283;48.876;8.962;2023-04-24T02:09:24;9.30;99.90
10472;DHT22;5283;48.876;8.962;2023-04-24T02:11:51;9.40;99.90
10472;DHT22;5283;48.876;8.962;2023-04-24T02:14:18;9.40;99.90
10472;DHT22;5283;48.876;8.962;2023-04-24T02:16:44;9.40;99.90
10472;DHT22;5283;48.876;8.962;2023-04-24T02:19:12;9.60;99.90
10472;DHT22;5283;48.876;8.962;2023-04-24T02:21:38;9.70;99.90
10472;DHT22;5283;48.876;8.962;2023-04-24T02:24:05;9.80;99.90
10472;DHT22;5283;48.876;8.962;2023-04-24T02:26:32;9.90;99.90
10472;DHT22;5283;48.876;8.962;2023-04-24T02:28:59;10.00;99.90
10472;DHT22;5283;48.876;8.962;2023-04-24T02:31:26;10.00;99.90
10472;DHT22;5283;48.876;8.962;2023-04-24T02:33:53;9.90;99.90
10472;DHT22;5283;48.876;8.962;2023-04-24T02:36:19;9.80;99.90
10472;DHT22;5283;48.876;8.962;2023-04-24T02:38:46;9.80;99.90
10472;DHT22;5283;48.876;8.962;2023-04-24T02:41:13;9.70;99.90
10472;DHT22;5283;48.876;8.962;2023-04-24T02:43:39;9.70;99.90
10472;DHT22;5283;48.876;8.962;2023-04-24T02:46:06;9.60;99.90
10472;DHT22;5283;48.876;8.962;2023-04-24T02:48:33;9.50;99.90
10472;DHT22;5283;48.876;8.962;2023-04-24T02:51:20;9.40;99.90
10472;DHT22;5283;48.876;8.962;2023-04-24T02:53:50;9.30;99.90
10472;DHT22;5283;48.876;8.962;2023-04-24T02:56:18;9.20;99.90
10472;DHT22;5283;48.876;8.962;2023-04-24T02:58:44;9.10;99.90
10472;DHT22;5283;48.876;8.962;2023-04-24T03:01:11;9.00;99.90
10472;DHT22;5283;48.876;8.962;2023-04-24T03:03:39;8.80;99.90
10472;DHT22;5283;48.876;8.962;2023-04-24T03:06:06;8.80;99.90
10472;DHT22;5283;48.876;8.962;2023-04-24T03:08:34;8.70;99.90
10472;DHT22;5283;48.876;8.962;2023-04-24T03:11:02;8.60;99.90
10472;DHT22;5283;48.876;8.962;2023-04-24T03:13:29;8.60;99.90
10472;DHT22;5283;48.876;8.962;2023-04-24T03:15:56;8.60;99.90
10472;DHT22;5283;48.876;8.962;2023-04-24T03:18:23;8.60;99.90
10472;DHT22;5283;48.876;8.962;2023-04-24T03:20:49;8.60;99.90
10472;DHT22;5283;48.876;8.962;2023-04-24T03:23:16;8.60;99.90
10472;DHT22;5283;48.876;8.962;2023-04-24T03:25:43;8.50;99.90
10472;DHT22;5283;48.876;8.962;2023-04-24T03:28:14;8.50;99.90
10472;DHT22;5283;48.876;8.962;2023-04-24T03:30:41;8.50;99.90
10472;DHT22;5283;48.876;8.962;2023-04-24T03:33:08;8.40;99.90
10472;DHT22;5283;48.876;8.962;2023-04-24T03:35:36;8.40;99.90
10472;DHT22;5283;48.876;8.962;2023-04-24T03:38:04;8.40;99.90
10472;DHT22;5283;48.876;8.962;2023-04-24T03:40:31;8.50;99.90
10472;DHT22;5283;48.876;8.962;2023-04-24T03:42:59;8.50;99.90
10472;DHT22;5283;48.876;8.962;2023-04-24T03:45:27;8.40;99.90
10472;DHT22;5283;48.876;8.962;2023-04-24T03:47:53;8.40;99.90
10472;DHT22;5283;48.876;8.962;2023-04-24T03:50:20;8.50;99.90
10472;DHT22;5283;48.876;8.962;2023-04-24T03:52:47;8.50;99.90
10472;DHT22;5283;48.876;8.962;2023-04-24T03:55:14;8.60;99.90
10472;DHT22;5283;48.876;8.962;2023-04-24T03:57:41;8.60;99.90
10472;DHT22;5283;48.876;8.962;2023-04-24T04:00:09;8.60;99.90
10472;DHT22;5283;48.876;8.962;2023-04-24T04:02:44;8.70;99.90
10472;DHT22;5283;48.876;8.962;2023-04-24T04:05:10;9.00;99.90
10472;DHT22;5283;48.876;8.962;2023-04-24T04:07:37;9.10;99.90
10472;DHT22;5283;48.876;8.962;2023-04-24T04:10:04;9.10;99.90
10472;DHT22;5283;48.876;8.962;2023-04-24T04:12:33;9.00;99.90
10472;DHT22;5283;48.876;8.962;2023-04-24T04:15:00;9.10;99.90
10472;DHT22;5283;48.876;8.962;2023-04-24T04:17:26;9.00;99.90
10472;DHT22;5283;48.876;8.962;2023-04-24T04:19:54;8.90;99.90
10472;DHT22;5283;48.876;8.962;2023-04-24T04:22:21;8.90;99.90
10472;DHT22;5283;48.876;8.962;2023-04-24T04:24:48;8.80;99.90
10472;DHT22;5283;48.876;8.962;2023-04-24T04:27:18;8.80;99.90
10472;DHT22;5283;48.876;8.962;2023-04-24T04:29:45;8.90;99.90
10472;DHT22;5283;48.876;8.962;2023-04-24T04:32:12;8.80;99.90
10472;DHT22;5283;48.876;8.962;2023-04-24T04:34:39;8.80;99.90
10472;DHT22;5283;48.876;8.962;2023-04-24T04:37:06;8.70;99.90
10472;DHT22;5283;48.876;8.962;2023-04-24T04:39:38;8.60;99.90
10472;DHT22;5283;48.876;8.962;2023-04-24T04:42:04;8.60;99.90
10472;DHT22;5283;48.876;8.962;2023-04-24T04:44:34;8.60;99.90
10472;DHT22;5283;48.876;8.962;2023-04-24T04:47:02;8.60;99.90
10472;DHT22;5283;48.876;8.962;2023-04-24T04:49:32;8.60;99.90
10472;DHT22;5283;48.876;8.962;2023-04-24T04:51:59;8.60;99.90
10472;DHT22;5283;48.876;8.962;2023-04-24T04:54:28;8.50;99.90
10472;DHT22;5283;48.876;8.962;2023-04-24T04:56:54;8.50;99.90
10472;DHT22;5283;48.876;8.962;2023-04-24T04:59:22;8.30;99.90
10472;DHT22;5283;48.876;8.962;2023-04-24T05:01:48;8.20;99.90
10472;DHT22;5283;48.876;8.962;2023-04-24T05:04:15;8.10;99.90
10472;DHT22;5283;48.876;8.962;2023-04-24T05:06:43;8.10;99.90
10472;DHT22;5283;48.876;8.962;2023-04-24T05:09:10;8.00;99.90
10472;DHT22;5283;48.876;8.962;2023-04-24T05:11:37;7.90;99.90
10472;DHT22;5283;48.876;8.962;2023-04-24T05:14:04;8.10;99.90
10472;DHT22;5283;48.876;8.962;2023-04-24T05:16:31;8.20;99.90
10472;DHT22;5283;48.876;8.962;2023-04-24T05:18:58;8.30;99.90
10472;DHT22;5283;48.876;8.962;2023-04-24T05:21:25;8.30;99.90
10472;DHT22;5283;48.876;8.962;2023-04-24T05:23:51;8.30;99.90
10472;DHT22;5283;48.876;8.962;2023-04-24T05:26:18;8.30;99.90
10472;DHT22;5283;48.876;8.962;2023-04-24T05:28:45;8.30;99.90
10472;DHT22;5283;48.876;8.962;2023-04-24T05:31:12;8.30;99.90
10472;DHT22;5283;48.876;8.962;2023-04-24T05:33:39;8.20;99.90
10472;DHT22;5283;48.876;8.962;2023-04-24T05:36:06;8.20;99.90
10472;DHT22;5283;48.876;8.962;2023-04-24T05:38:44;8.40;99.90
10472;DHT22;5283;48.876;8.962;2023-04-24T05:41:11;8.80;99.90
10472;DHT22;5283;48.876;8.962;2023-04-24T05:43:42;9.10;99.90
10472;DHT22;5283;48.876;8.962;2023-04-24T05:46:11;9.40;99.90
10472;DHT22;5283;48.876;8.962;2023-04-24T05:48:38;9.60;99.90
10472;DHT22;5283;48.876;8.962;2023-04-24T05:51:05;9.60;99.90
10472;DHT22;5283;48.876;8.962;2023-04-24T05:53:31;9.60;99.90
10472;DHT22;5283;48.876;8.962;2023-04-24T05:55:58;9.40;99.90
10472;DHT22;5283;48.876;8.962;2023-04-24T05:58:25;9.30;99.90
10472;DHT22;5283;48.876;8.962;2023-04-24T06:00:52;9.20;99.90
10472;DHT22;5283;48.876;8.962;2023-04-24T06:03:19;9.30;99.90
10472;DHT22;5283;48.876;8.962;2023-04-24T06:05:49;9.50;99.90
10472;DHT22;5283;48.876;8.962;2023-04-24T06:08:16;9.80;99.90
10472;DHT22;5283;48.876;8.962;2023-04-24T06:10:44;10.10;99.90
10472;DHT22;5283;48.876;8.962;2023-04-24T06:13:11;10.00;99.90
10472;DHT22;5283;48.876;8.962;2023-04-24T06:15:38;10.20;99.90
10472;DHT22;5283;48.876;8.962;2023-04-24T06:18:05;10.60;99.90
10472;DHT22;5283;48.876;8.962;2023-04-24T06:20:31;11.40;99.90
10472;DHT22;5283;48.876;8.962;2023-04-24T06:22:58;12.10;99.90
10472;DHT22;5283;48.876;8.962;2023-04-24T06:25:25;12.40;99.90
10472;DHT22;5283;48.876;8.962;2023-04-24T06:27:54;12.00;99.90
10472;DHT22;5283;48.876;8.962;2023-04-24T06:30:20;11.60;99.90
10472;DHT22;5283;48.876;8.962;2023-04-24T06:32:48;11.40;99.90
10472;DHT22;5283;48.876;8.962;2023-04-24T06:35:15;11.20;99.90
10472;DHT22;5283;48.876;8.962;2023-04-24T06:37:42;11.40;99.90
10472;DHT22;5283;48.876;8.962;2023-04-24T06:40:09;11.80;99.90
10472;DHT22;5283;48.876;8.962;2023-04-24T06:42:36;12.00;99.90
10472;DHT22;5283;48.876;8.962;2023-04-24T06:45:07;12.10;99.90
10472;DHT22;5283;48.876;8.962;2023-04-24T06:47:34;12.00;99.90
10472;DHT22;5283;48.876;8.962;2023-04-24T06:50:00;12.30;99.90
10472;DHT22;5283;48.876;8.962;2023-04-24T06:52:27;12.10;99.90
10472;DHT22;5283;48.876;8.962;2023-04-24T06:55:00;11.90;99.90
10472;DHT22;5283;48.876;8.962;2023-04-24T06:57:28;11.70;99.90
10472;DHT22;5283;48.876;8.962;2023-04-24T06:59:55;11.80;99.90
10472;DHT22;5283;48.876;8.962;2023-04-24T07:02:22;11.50;99.90
10472;DHT22;5283;48.876;8.962;2023-04-24T07:04:49;11.50;99.90
10472;DHT22;5283;48.876;8.962;2023-04-24T07:07:16;11.60;99.90
10472;DHT22;5283;48.876;8.962;2023-04-24T07:09:43;11.70;99.90
10472;DHT22;5283;48.876;8.962;2023-04-24T07:12:11;11.70;99.90
10472;DHT22;5283;48.876;8.962;2023-04-24T07:14:38;11.40;99.90
10472;DHT22;5283;48.876;8.962;2023-04-24T07:17:05;11.30;99.90
10472;DHT22;5283;48.876;8.962;2023-04-24T07:19:35;11.40;99.90
10472;DHT22;5283;48.876;8.962;2023-04-24T07:22:02;11.50;99.90
10472;DHT22;5283;48.876;8.962;2023-04-24T07:24:30;11.20;99.90
10472;DHT22;5283;48.876;8.962;2023-04-24T07:27:02;11.00;99.90
10472;DHT22;5283;48.876;8.962;2023-04-24T07:29:29;10.90;99.90
10472;DHT22;5283;48.876;8.962;2023-04-24T07:31:56;10.70;99.90
10472;DHT22;5283;48.876;8.962;2023-04-24T07:34:23;10.70;99.90
10472;DHT22;5283;48.876;8.962;2023-04-24T07:36:49;10.50;99.90
10472;DHT22;5283;48.876;8.962;2023-04-24T07:39:17;10.60;99.90
10472;DHT22;5283;48.876;8.962;2023-04-24T07:41:48;10.50;99.90
10472;DHT22;5283;48.876;8.962;2023-04-24T07:44:14;10.60;99.90
10472;DHT22;5283;48.876;8.962;2023-04-24T07:46:41;10.40;99.90
10472;DHT22;5283;48.876;8.962;2023-04-24T07:49:08;10.30;99.90
10472;DHT22;5283;48.876;8.962;2023-04-24T07:51:38;10.30;99.90
10472;DHT22;5283;48.876;8.962;2023-04-24T07:54:05;10.30;99.90
10472;DHT22;5283;48.876;8.962;2023-04-24T07:56:33;10.40;99.90
10472;DHT22;5283;48.876;8.962;2023-04-24T07:59:00;10.30;99.90
10472;DHT22;5283;48.876;8.962;2023-04-24T08:01:27;10.30;99.90
10472;DHT22;5283;48.876;8.962;2023-04-24T08:03:54;10.30;99.90
10472;DHT22;5283;48.876;8.962;2023-04-24T08:06:21;10.20;99.90
10472;DHT22;5283;48.876;8.962;2023-04-24T08:08:49;10.10;99.90
10472;DHT22;5283;48.876;8.962;2023-04-24T08:11:17;10.10;99.90
10472;DHT22;5283;48.876;8.962;2023-04-24T08:13:43;10.40;99.90
10472;DHT22;5283;48.876;8.962;2023-04-24T08:16:10;10.70;99.90
10472;DHT22;5283;48.876;8.962;2023-04-24T08:18:45;10.80;99.90
10472;DHT22;5283;48.876;8.962;2023-04-24T08:21:12;11.00;99.90
10472;DHT22;5283;48.876;8.962;2023-04-24T08:23:43;10.70;99.90
10472;DHT22;5283;48.876;8.962;2023-04-24T08:26:10;10.50;99.90
10472;DHT22;5283;48.876;8.962;2023-04-24T08:28:38;11.10;99.90
10472;DHT22;5283;48.876;8.962;2023-04-24T08:31:05;11.20;99.90
10472;DHT22;5283;48.876;8.962;2023-04-24T08:33:32;11.60;99.90
10472;DHT22;5283;48.876;8.962;2023-04-24T08:36:03;11.60;99.90
10472;DHT22;5283;48.876;8.962;2023-04-24T08:38:30;11.70;99.90
10472;DHT22;5283;48.876;8.962;2023-04-24T08:40:58;11.50;99.90
10472;DHT22;5283;48.876;8.962;2023-04-24T08:43:26;11.60;99.90
10472;DHT22;5283;48.876;8.962;2023-04-24T08:45:56;11.70;99.90
10472;DHT22;5283;48.876;8.962;2023-04-24T08:48:23;11.70;99.90
10472;DHT22;5283;48.876;8.962;2023-04-24T08:50:56;12.00;99.90
10472;DHT22;5283;48.876;8.962;2023-04-24T08:53:25;12.10;99.90
10472;DHT22;5283;48.876;8.962;2023-04-24T08:55:54;12.50;99.90
10472;DHT22;5283;48.876;8.962;2023-04-24T08:58:26;12.60;99.90
10472;DHT22;5283;48.876;8.962;2023-04-24T09:00:57;11.90;99.90
10472;DHT22;5283;48.876;8.962;2023-04-24T09:03:24;11.20;99.90
10472;DHT22;5283;48.876;8.962;2023-04-24T09:05:54;10.90;99.90
10472;DHT22;5283;48.876;8.962;2023-04-24T09:08:24;11.00;99.90
10472;DHT22;5283;48.876;8.962;2023-04-24T09:10:51;11.50;99.90
10472;DHT22;5283;48.876;8.962;2023-04-24T09:13:19;11.50;99.90
10472;DHT22;5283;48.876;8.962;2023-04-24T09:15:46;11.80;99.90
10472;DHT22;5283;48.876;8.962;2023-04-24T09:18:13;11.60;99.90
10472;DHT22;5283;48.876;8.962;2023-04-24T09:23:31;11.50;99.90
10472;DHT22;5283;48.876;8.962;2023-04-24T09:26:00;11.60;99.90
10472;DHT22;5283;48.876;8.962;2023-04-24T09:28:34;11.50;99.90
10472;DHT22;5283;48.876;8.962;2023-04-24T09:31:17;11.60;99.90
10472;DHT22;5283;48.876;8.962;2023-04-24T09:33:56;11.80;99.90
10472;DHT22;5283;48.876;8.962;2023-04-24T09:36:32;11.90;99.90
10472;DHT22;5283;48.876;8.962;2023-04-24T09:39:05;11.70;99.90
10472;DHT22;5283;48.876;8.962;2023-04-24T09:41:34;12.10;99.90
10472;DHT22;5283;48.876;8.962;2023-04-24T09:44:13;12.10;99.90
10472;DHT22;5283;48.876;8.962;2023-04-24T09:46:41;11.70;99.90
10472;DHT22;5283;48.876;8.962;2023-04-24T09:49:09;11.90;99.90
10472;DHT22;5283;48.876;8.962;2023-04-24T09:51:38;12.10;99.90
10472;DHT22;5283;48.876;8.962;2023-04-24T09:54:14;12.30;99.90
10472;DHT22;5283;48.876;8.962;2023-04-24T09:56:43;12.30;99.90
10472;DHT22;5283;48.876;8.962;2023-04-24T09:59:15;12.10;99.90
10472;DHT22;5283;48.876;8.962;2023-04-24T10:01:42;12.30;99.90
10472;DHT22;5283;48.876;8.962;2023-04-24T10:06:45;11.90;99.90
10472;DHT22;5283;48.876;8.962;2023-04-24T10:09:14;11.70;99.90
10472;DHT22;5283;48.876;8.962;2023-04-24T10:11:43;11.50;99.90
10472;DHT22;5283;48.876;8.962;2023-04-24T10:14:12;11.10;99.90
10472;DHT22;5283;48.876;8.962;2023-04-24T10:16:40;11.00;99.90
10472;DHT22;5283;48.876;8.962;2023-04-24T10:19:08;11.00;99.90
10472;DHT22;5283;48.876;8.962;2023-04-24T10:21:35;10.80;99.90
10472;DHT22;5283;48.876;8.962;2023-04-24T10:24:05;10.80;99.90
10472;DHT22;5283;48.876;8.962;2023-04-24T10:26:34;10.70;99.90
10472;DHT22;5283;48.876;8.962;2023-04-24T10:29:01;10.70;99.90
10472;DHT22;5283;48.876;8.962;2023-04-24T10:31:31;10.90;99.90
10472;DHT22;5283;48.876;8.962;2023-04-24T10:34:00;11.10;99.90
10472;DHT22;5283;48.876;8.962;2023-04-24T10:36:30;11.20;99.90
10472;DHT22;5283;48.876;8.962;2023-04-24T10:39:00;11.10;99.90
10472;DHT22;5283;48.876;8.962;2023-04-24T10:41:30;11.20;99.90
10472;DHT22;5283;48.876;8.962;2023-04-24T10:44:13;11.10;99.90
10472;DHT22;5283;48.876;8.962;2023-04-24T10:46:47;11.10;99.90
10472;DHT22;5283;48.876;8.962;2023-04-24T10:49:29;10.90;99.90
10472;DHT22;5283;48.876;8.962;2023-04-24T10:52:01;11.00;99.90
10472;DHT22;5283;48.876;8.962;2023-04-24T10:54:33;11.10;99.90
10472;DHT22;5283;48.876;8.962;2023-04-24T10:59:51;11.40;99.90
10472;DHT22;5283;48.876;8.962;2023-04-24T11:02:19;11.70;99.90
10472;DHT22;5283;48.876;8.962;2023-04-24T11:05:05;11.70;99.90
10472;DHT22;5283;48.876;8.962;2023-04-24T11:08:14;11.70;99.90
10472;DHT22;5283;48.876;8.962;2023-04-24T11:11:17;12.50;99.90
10472;DHT22;5283;48.876;8.962;2023-04-24T11:16:42;12.80;99.90
10472;DHT22;5283;48.876;8.962;2023-04-24T11:22:01;12.80;99.90
10472;DHT22;5283;48.876;8.962;2023-04-24T11:27:21;12.50;99.90
10472;DHT22;5283;48.876;8.962;2023-04-24T11:35:13;12.00;99.90
10472;DHT22;5283;48.876;8.962;2023-04-24T11:37:45;12.20;99.90
10472;DHT22;5283;48.876;8.962;2023-04-24T11:40:14;12.40;99.90
10472;DHT22;5283;48.876;8.962;2023-04-24T11:42:46;12.60;99.90
10472;DHT22;5283;48.876;8.962;2023-04-24T11:45:16;12.80;99.90
10472;DHT22;5283;48.876;8.962;2023-04-24T11:47:43;12.90;99.90
10472;DHT22;5283;48.876;8.962;2023-04-24T11:50:13;12.70;99.90
10472;DHT22;5283;48.876;8.962;2023-04-24T11:52:42;12.40;99.90
10472;DHT22;5283;48.876;8.962;2023-04-24T11:57:58;12.10;99.90
10472;DHT22;5283;48.876;8.962;2023-04-24T12:00:28;12.00;99.90
10472;DHT22;5283;48.876;8.962;2023-04-24T12:03:07;11.80;99.90
10472;DHT22;5283;48.876;8.962;2023-04-24T12:05:34;11.70;99.90
10472;DHT22;5283;48.876;8.962;2023-04-24T12:08:01;11.50;99.90
10472;DHT22;5283;48.876;8.962;2023-04-24T12:10:29;11.50;99.90
10472;DHT22;5283;48.876;8.962;2023-04-24T12:12:57;11.70;99.90
10472;DHT22;5283;48.876;8.962;2023-04-24T12:15:24;11.90;99.90
10472;DHT22;5283;48.876;8.962;2023-04-24T12:17:53;11.90;99.90
10472;DHT22;5283;48.876;8.962;2023-04-24T12:20:26;12.00;99.90
10472;DHT22;5283;48.876;8.962;2023-04-24T12:22:57;11.70;99.90
10472;DHT22;5283;48.876;8.962;2023-04-24T12:25:27;11.60;99.90
10472;DHT22;5283;48.876;8.962;2023-04-24T12:30:33;11.70;99.90
10472;DHT22;5283;48.876;8.962;2023-04-24T12:33:00;11.80;99.90
10472;DHT22;5283;48.876;8.962;2023-04-24T12:35:33;11.70;99.90
10472;DHT22;5283;48.876;8.962;2023-04-24T12:40:34;12.00;99.90
10472;DHT22;5283;48.876;8.962;2023-04-24T12:43:20;11.80;99.90
10472;DHT22;5283;48.876;8.962;2023-04-24T12:45:49;11.30;99.90
10472;DHT22;5283;48.876;8.962;2023-04-24T12:48:17;11.90;99.90
10472;DHT22;5283;48.876;8.962;2023-04-24T12:50:45;12.20;99.90
10472;DHT22;5283;48.876;8.962;2023-04-24T12:53:13;12.50;99.90
10472;DHT22;5283;48.876;8.962;2023-04-24T12:55:40;12.60;99.90
10472;DHT22;5283;48.876;8.962;2023-04-24T12:58:08;12.30;99.90
10472;DHT22;5283;48.876;8.962;2023-04-24T13:00:35;11.80;99.90
10472;DHT22;5283;48.876;8.962;2023-04-24T13:03:02;11.60;99.90
10472;DHT22;5283;48.876;8.962;2023-04-24T13:05:30;11.40;99.90
10472;DHT22;5283;48.876;8.962;2023-04-24T13:07:57;11.60;99.90
10472;DHT22;5283;48.876;8.962;2023-04-24T13:10:24;11.40;99.90
10472;DHT22;5283;48.876;8.962;2023-04-24T13:12:50;11.70;99.90
10472;DHT22;5283;48.876;8.962;2023-04-24T13:15:17;11.70;99.90
10472;DHT22;5283;48.876;8.962;2023-04-24T13:17:44;12.20;99.90
10472;DHT22;5283;48.876;8.962;2023-04-24T13:20:11;12.00;99.90
10472;DHT22;5283;48.876;8.962;2023-04-24T13:22:37;12.00;99.90
10472;DHT22;5283;48.876;8.962;2023-04-24T13:25:05;11.80;99.90
10472;DHT22;5283;48.876;8.962;2023-04-24T13:27:32;12.00;99.90
10472;DHT22;5283;48.876;8.962;2023-04-24T13:29:59;11.90;99.90
10472;DHT22;5283;48.876;8.962;2023-04-24T13:32:26;11.90;99.90
10472;DHT22;5283;48.876;8.962;2023-04-24T13:34:54;11.80;99.90
10472;DHT22;5283;48.876;8.962;2023-04-24T13:37:20;11.60;99.90
10472;DHT22;5283;48.876;8.962;2023-04-24T13:39:49;11.50;99.90
10472;DHT22;5283;48.876;8.962;2023-04-24T13:42:16;11.40;99.90
10472;DHT22;5283;48.876;8.962;2023-04-24T13:44:45;11.80;99.90
10472;DHT22;5283;48.876;8.962;2023-04-24T13:47:13;12.40;99.90
10472;DHT22;5283;48.876;8.962;2023-04-24T13:49:39;12.60;99.90
10472;DHT22;5283;48.876;8.962;2023-04-24T13:52:06;12.20;99.90
10472;DHT22;5283;48.876;8.962;2023-04-24T13:54:33;12.30;99.90
10472;DHT22;5283;48.876;8.962;2023-04-24T13:57:00;12.00;99.90
10472;DHT22;5283;48.876;8.962;2023-04-24T13:59:29;11.80;99.90
10472;DHT22;5283;48.876;8.962;2023-04-24T14:01:56;12.00;99.90
10472;DHT22;5283;48.876;8.962;2023-04-24T14:04:30;12.20;99.90
10472;DHT22;5283;48.876;8.962;2023-04-24T14:06:57;12.40;99.90
10472;DHT22;5283;48.876;8.962;2023-04-24T14:09:23;12.70;99.90
10472;DHT22;5283;48.876;8.962;2023-04-24T14:11:51;12.90;99.90
10472;DHT22;5283;48.876;8.962;2023-04-24T14:14:19;12.90;99.90
10472;DHT22;5283;48.876;8.962;2023-04-24T14:16:46;12.90;99.90
10472;DHT22;5283;48.876;8.962;2023-04-24T14:19:12;13.20;99.90
10472;DHT22;5283;48.876;8.962;2023-04-24T14:21:39;13.30;99.90
10472;DHT22;5283;48.876;8.962;2023-04-24T14:24:06;13.20;99.90
10472;DHT22;5283;48.876;8.962;2023-04-24T14:26:33;13.40;99.90
10472;DHT22;5283;48.876;8.962;2023-04-24T14:28:59;13.10;99.90
10472;DHT22;5283;48.876;8.962;2023-04-24T14:31:33;12.80;99.90
10472;DHT22;5283;48.876;8.962;2023-04-24T14:33:59;12.90;99.90
10472;DHT22;5283;48.876;8.962;2023-04-24T14:36:26;12.80;99.90
10472;DHT22;5283;48.876;8.962;2023-04-24T14:38:53;12.70;99.90
10472;DHT22;5283;48.876;8.962;2023-04-24T14:41:19;13.10;99.90
10472;DHT22;5283;48.876;8.962;2023-04-24T14:43:46;13.30;99.90
10472;DHT22;5283;48.876;8.962;2023-04-24T14:46:13;13.30;99.90
10472;DHT22;5283;48.876;8.962;2023-04-24T14:48:40;12.90;99.90
10472;DHT22;5283;48.876;8.962;2023-04-24T14:51:06;13.00;99.90
10472;DHT22;5283;48.876;8.962;2023-04-24T14:53:33;12.80;99.90
10472;DHT22;5283;48.876;8.962;2023-04-24T14:56:00;12.50;99.90
10472;DHT22;5283;48.876;8.962;2023-04-24T14:58:31;12.40;99.90
10472;DHT22;5283;48.876;8.962;2023-04-24T15:01:01;12.10;99.90
10472;DHT22;5283;48.876;8.962;2023-04-24T15:03:28;11.70;99.90
10472;DHT22;5283;48.876;8.962;2023-04-24T15:05:55;11.60;99.90
10472;DHT22;5283;48.876;8.962;2023-04-24T15:08:22;11.50;99.90
10472;DHT22;5283;48.876;8.962;2023-04-24T15:10:49;11.40;99.90
10472;DHT22;5283;48.876;8.962;2023-04-24T15:13:16;11.40;99.90
10472;DHT22;5283;48.876;8.962;2023-04-24T15:15:43;11.60;99.90
10472;DHT22;5283;48.876;8.962;2023-04-24T15:18:12;11.80;99.90
10472;DHT22;5283;48.876;8.962;2023-04-24T15:20:39;12.00;99.90
10472;DHT22;5283;48.876;8.962;2023-04-24T15:23:10;12.50;99.90
10472;DHT22;5283;48.876;8.962;2023-04-24T15:25:37;12.80;99.90
10472;DHT22;5283;48.876;8.962;2023-04-24T15:28:04;12.60;99.90
10472;DHT22;5283;48.876;8.962;2023-04-24T15:30:31;12.50;99.90
10472;DHT22;5283;48.876;8.962;2023-04-24T15:32:59;12.40;99.90
10472;DHT22;5283;48.876;8.962;2023-04-24T15:35:27;12.50;99.90
10472;DHT22;5283;48.876;8.962;2023-04-24T15:37:54;12.20;99.90
10472;DHT22;5283;48.876;8.962;2023-04-24T15:40:21;12.00;99.90
10472;DHT22;5283;48.876;8.962;2023-04-24T15:42:48;12.10;99.90
10472;DHT22;5283;48.876;8.962;2023-04-24T15:45:15;12.30;99.90
10472;DHT22;5283;48.876;8.962;2023-04-24T15:47:41;12.20;99.90
10472;DHT22;5283;48.876;8.962;2023-04-24T15:50:12;12.20;99.90
10472;DHT22;5283;48.876;8.962;2023-04-24T15:52:40;12.20;99.90
10472;DHT22;5283;48.876;8.962;2023-04-24T15:55:06;12.40;99.90
10472;DHT22;5283;48.876;8.962;2023-04-24T15:57:33;12.50;99.90
10472;DHT22;5283;48.876;8.962;2023-04-24T16:00:10;12.20;99.90
10472;DHT22;5283;48.876;8.962;2023-04-24T16:02:37;12.30;99.90
10472;DHT22;5283;48.876;8.962;2023-04-24T16:05:04;12.40;99.90
10472;DHT22;5283;48.876;8.962;2023-04-24T16:07:33;12.40;99.90
10472;DHT22;5283;48.876;8.962;2023-04-24T16:10:00;12.10;99.90
10472;DHT22;5283;48.876;8.962;2023-04-24T16:12:27;12.10;99.90
10472;DHT22;5283;48.876;8.962;2023-04-24T16:14:54;12.10;99.90
10472;DHT22;5283;48.876;8.962;2023-04-24T16:17:21;12.00;99.90
10472;DHT22;5283;48.876;8.962;2023-04-24T16:19:48;11.80;99.90
10472;DHT22;5283;48.876;8.962;2023-04-24T16:22:15;12.00;99.90
10472;DHT22;5283;48.876;8.962;2023-04-24T16:24:41;12.10;99.90
10472;DHT22;5283;48.876;8.962;2023-04-24T16:27:09;12.00;99.90